Hauptseite
METAR-TAF:

METAR-TAF

Flughäfen :

Flughafen Ko Samui

Ko Samui, Thailand

Breite: 09-32-52N, Länge: 100-03-44E, Höhe: 20 m

Beobachtung

Neuester Wetterbericht von vor 3 Stunden und 27 Minuten, um 15:00 UTC
Wind 4 kt aus West/Nordwest
Temperatur 30°C
Luftfeuchtigkeit 75%
Luftdruck 1010 hPa
Sichtweite 10 km oder mehr
Leicht bewölkt in der Höhe von 2000 ft

METAR: VTSM 181500Z 29004KT 9999 FEW020 30/25 Q1010 NOSIG

Zeit: 01:27 (18:27 UTC)

Prognose

Neuester Wetterbericht von vor 1 Stunde und 27 Minuten, um 17:00 UTC
Gültige Prognose vom 18 um 18 UTC bis 19 um 18 UTC
Wind 6 kt aus West
Sichtweite 10 km oder mehr
Leicht bewölkt in der Höhe von 2000 ft

TAF: VTSM 181700Z 1818/1918 28006KT 9999 FEW020

Wetterbeobachtungen und Prognosen von mehr als 4000 Flughäfen (METAR und TAF Bericht).

Die verfügbaren Stationen werden durch gelbe und rote Markierungen auf der Karte dargestellt.

Führen Sie die Maus auf sie, um den Namen der Station zu sehen.

Darauf klicken, um die Beobachtung von Wetterbeobachtungen und Prognosen zu sehen.

Um die Karte zu ändern : klicken Sie auf den grünen Tasten mit einem schwarzen Kreuz Zum Vergrößern, auf den grünen Button mit einem Gedankenstrich zu verkleinern, oder auf die grünen Pfeile für benachbarte Karten.


METAR-TAF: